
<gpx xmlns="http://www.topografix.com/GPX/1/1" xmlns:gpxx="http://www.garmin.com/xmlschemas/GpxExtensions/v3" xmlns:xsi="http://www.w3.org/2001/XMLSchema-instance" version="1.1" creator="Adze - https://getadze.com/" xsi:schemaLocation="http://www.topografix.com/GPX/1/1 http://www.topografix.com/GPX/1/1/gpx.xsd http://www.garmin.com/xmlschemas/GpxExtensions/v3 http://www.garmin.com/xmlschemas/GpxExtensionsv3.xsd">
    <metadata>
        <name>Untitled Document</name>
        <link href="http://www.garmin.com"></link>
        <time>2018-03-07T08:13:34.473Z</time>
    </metadata>
    <wpt lon="101.460151" lat="12.673003">
        <time>2008-12-01T01:40:18Z</time>
        <name>November 2008 - Sunday water</name>
        <sym>Drinking Water</sym>
        <extensions>
            <gpxx:WaypointExtension xmlns:gpxx="http://www.garmin.com/xmlschemas/GpxExtensions/v3">
                <gpxx:DisplayMode>SymbolOnly</gpxx:DisplayMode>
            </gpxx:WaypointExtension>
        </extensions>
    </wpt>
    <wpt lon="101.447660" lat="12.630872">
        <ele>-0.000000</ele>
        <name>Pines Beach Hotel</name>
        <cmt>29-NOV-08 11:55:40</cmt>
        <desc>29-NOV-08 11:55:40</desc>
        <sym>Lodging</sym>
        <extensions>
            <gpxx:WaypointExtension xmlns:gpxx="http://www.garmin.com/xmlschemas/GpxExtensions/v3">
                <gpxx:DisplayMode>SymbolOnly</gpxx:DisplayMode>
            </gpxx:WaypointExtension>
        </extensions>
    </wpt>
    <trk>
        <name>November 2008 - Sunday</name>
        <extensions>
            <gpxx:TrackExtension xmlns:gpxx="http://www.garmin.com/xmlschemas/GpxExtensions/v3">
                <gpxx:DisplayColor>Green</gpxx:DisplayColor>
            </gpxx:TrackExtension>
        </extensions>
        <trkseg>
            <trkpt lon="101.447646" lat="12.630898">
                <ele>9.750610</ele>
                <time>2008-11-30T02:49:05Z</time>
            </trkpt>
            <trkpt lon="101.447701" lat="12.630886">
                <ele>5.424561</ele>
                <time>2008-11-30T02:50:57Z</time>
            </trkpt>
            <trkpt lon="101.447669" lat="12.630883">
                <ele>3.021240</ele>
                <time>2008-11-30T02:52:53Z</time>
            </trkpt>
            <trkpt lon="101.447679" lat="12.630872">
                <ele>2.060059</ele>
                <time>2008-11-30T02:53:19Z</time>
            </trkpt>
            <trkpt lon="101.447684" lat="12.630870">
                <ele>3.982666</ele>
                <time>2008-11-30T02:56:40Z</time>
            </trkpt>
            <trkpt lon="101.447678" lat="12.630870">
                <ele>3.982666</ele>
                <time>2008-11-30T02:58:43Z</time>
            </trkpt>
            <trkpt lon="101.447710" lat="12.630857">
                <ele>4.463257</ele>
                <time>2008-11-30T02:58:54Z</time>
            </trkpt>
            <trkpt lon="101.447762" lat="12.630740">
                <ele>4.943848</ele>
                <time>2008-11-30T02:59:01Z</time>
            </trkpt>
            <trkpt lon="101.447829" lat="12.630576">
                <ele>3.982666</ele>
                <time>2008-11-30T02:59:09Z</time>
            </trkpt>
            <trkpt lon="101.447930" lat="12.630584">
                <ele>3.021240</ele>
                <time>2008-11-30T02:59:13Z</time>
            </trkpt>
            <trkpt lon="101.448570" lat="12.630840">
                <ele>2.540649</ele>
                <time>2008-11-30T02:59:31Z</time>
            </trkpt>
            <trkpt lon="101.449584" lat="12.631185">
                <ele>1.579346</ele>
                <time>2008-11-30T02:59:52Z</time>
            </trkpt>
            <trkpt lon="101.450781" lat="12.631481">
                <ele>1.579346</ele>
                <time>2008-11-30T03:00:16Z</time>
            </trkpt>
            <trkpt lon="101.451653" lat="12.631674">
                <ele>1.579346</ele>
                <time>2008-11-30T03:00:34Z</time>
            </trkpt>
            <trkpt lon="101.453793" lat="12.631854">
                <ele>4.463257</ele>
                <time>2008-11-30T03:01:14Z</time>
            </trkpt>
            <trkpt lon="101.454984" lat="12.631830">
                <ele>3.501953</ele>
                <time>2008-11-30T03:01:34Z</time>
            </trkpt>
            <trkpt lon="101.456889" lat="12.631851">
                <ele>2.060059</ele>
                <time>2008-11-30T03:02:08Z</time>
            </trkpt>
            <trkpt lon="101.458157" lat="12.632212">
                <ele>1.098633</ele>
                <time>2008-11-30T03:02:31Z</time>
            </trkpt>
            <trkpt lon="101.459555" lat="12.632562">
                <ele>3.501953</ele>
                <time>2008-11-30T03:02:55Z</time>
            </trkpt>
            <trkpt lon="101.460635" lat="12.632641">
                <ele>3.501953</ele>
                <time>2008-11-30T03:03:15Z</time>
            </trkpt>
            <trkpt lon="101.461885" lat="12.632817">
                <ele>5.424561</ele>
                <time>2008-11-30T03:03:37Z</time>
            </trkpt>
            <trkpt lon="101.462879" lat="12.632906">
                <ele>4.943848</ele>
                <time>2008-11-30T03:03:56Z</time>
            </trkpt>
            <trkpt lon="101.464277" lat="12.633025">
                <ele>5.905273</ele>
                <time>2008-11-30T03:04:20Z</time>
            </trkpt>
            <trkpt lon="101.465517" lat="12.633127">
                <ele>5.424561</ele>
                <time>2008-11-30T03:04:41Z</time>
            </trkpt>
            <trkpt lon="101.468575" lat="12.633335">
                <ele>5.424561</ele>
                <time>2008-11-30T03:05:30Z</time>
            </trkpt>
            <trkpt lon="101.469819" lat="12.633421">
                <ele>5.905273</ele>
                <time>2008-11-30T03:05:51Z</time>
            </trkpt>
            <trkpt lon="101.470949" lat="12.633484">
                <ele>4.463257</ele>
                <time>2008-11-30T03:06:09Z</time>
            </trkpt>
            <trkpt lon="101.472532" lat="12.633587">
                <ele>8.789185</ele>
                <time>2008-11-30T03:06:36Z</time>
            </trkpt>
            <trkpt lon="101.473693" lat="12.633641">
                <ele>8.308594</ele>
                <time>2008-11-30T03:06:56Z</time>
            </trkpt>
            <trkpt lon="101.475565" lat="12.633540">
                <ele>7.347168</ele>
                <time>2008-11-30T03:07:25Z</time>
            </trkpt>
            <trkpt lon="101.476989" lat="12.633394">
                <ele>5.905273</ele>
                <time>2008-11-30T03:07:46Z</time>
            </trkpt>
            <trkpt lon="101.479674" lat="12.633253">
                <ele>3.021240</ele>
                <time>2008-11-30T03:08:26Z</time>
            </trkpt>
            <trkpt lon="101.481676" lat="12.633251">
                <ele>3.501953</ele>
                <time>2008-11-30T03:08:56Z</time>
            </trkpt>
            <trkpt lon="101.483361" lat="12.633249">
                <ele>2.060059</ele>
                <time>2008-11-30T03:09:21Z</time>
            </trkpt>
            <trkpt lon="101.484652" lat="12.633258">
                <ele>3.982666</ele>
                <time>2008-11-30T03:09:41Z</time>
            </trkpt>
            <trkpt lon="101.484790" lat="12.633355">
                <ele>3.982666</ele>
                <time>2008-11-30T03:09:45Z</time>
            </trkpt>
            <trkpt lon="101.484993" lat="12.634208">
                <ele>3.021240</ele>
                <time>2008-11-30T03:10:02Z</time>
            </trkpt>
            <trkpt lon="101.485050" lat="12.635232">
                <ele>2.540649</ele>
                <time>2008-11-30T03:10:19Z</time>
            </trkpt>
            <trkpt lon="101.485170" lat="12.636385">
                <ele>3.982666</ele>
                <time>2008-11-30T03:10:38Z</time>
            </trkpt>
            <trkpt lon="101.485355" lat="12.636896">
                <ele>3.501953</ele>
                <time>2008-11-30T03:10:47Z</time>
            </trkpt>
            <trkpt lon="101.485493" lat="12.637067">
                <ele>3.021240</ele>
                <time>2008-11-30T03:10:52Z</time>
            </trkpt>
            <trkpt lon="101.486377" lat="12.637399">
                <ele>3.501953</ele>
                <time>2008-11-30T03:11:09Z</time>
            </trkpt>
            <trkpt lon="101.486990" lat="12.637572">
                <ele>3.982666</ele>
                <time>2008-11-30T03:11:20Z</time>
            </trkpt>
            <trkpt lon="101.487216" lat="12.637830">
                <ele>3.982666</ele>
                <time>2008-11-30T03:11:26Z</time>
            </trkpt>
            <trkpt lon="101.487510" lat="12.637928">
                <ele>3.021240</ele>
                <time>2008-11-30T03:11:32Z</time>
            </trkpt>
            <trkpt lon="101.487875" lat="12.637868">
                <ele>2.540649</ele>
                <time>2008-11-30T03:11:38Z</time>
            </trkpt>
            <trkpt lon="101.489423" lat="12.638051">
                <ele>1.579346</ele>
                <time>2008-11-30T03:12:02Z</time>
            </trkpt>
            <trkpt lon="101.489618" lat="12.638065">
                <ele>1.579346</ele>
                <time>2008-11-30T03:12:05Z</time>
            </trkpt>
            <trkpt lon="101.489748" lat="12.638057">
                <ele>1.579346</ele>
                <time>2008-11-30T03:12:07Z</time>
            </trkpt>
            <trkpt lon="101.490605" lat="12.638238">
                <ele>0.137451</ele>
                <time>2008-11-30T03:12:23Z</time>
            </trkpt>
            <trkpt lon="101.490940" lat="12.638306">
                <ele>0.618042</ele>
                <time>2008-11-30T03:12:30Z</time>
            </trkpt>
            <trkpt lon="101.491201" lat="12.638298">
                <ele>2.060059</ele>
                <time>2008-11-30T03:12:36Z</time>
            </trkpt>
            <trkpt lon="101.491297" lat="12.638352">
                <ele>2.540649</ele>
                <time>2008-11-30T03:12:40Z</time>
            </trkpt>
            <trkpt lon="101.491321" lat="12.638622">
                <ele>3.021240</ele>
                <time>2008-11-30T03:12:47Z</time>
            </trkpt>
            <trkpt lon="101.491242" lat="12.639396">
                <ele>1.579346</ele>
                <time>2008-11-30T03:13:02Z</time>
            </trkpt>
            <trkpt lon="101.491225" lat="12.639741">
                <ele>2.060059</ele>
                <time>2008-11-30T03:13:08Z</time>
            </trkpt>
            <trkpt lon="101.491198" lat="12.639854">
                <ele>1.579346</ele>
                <time>2008-11-30T03:13:10Z</time>
            </trkpt>
            <trkpt lon="101.491097" lat="12.640059">
                <ele>1.579346</ele>
                <time>2008-11-30T03:13:14Z</time>
            </trkpt>
            <trkpt lon="101.490635" lat="12.641103">
                <ele>2.060059</ele>
                <time>2008-11-30T03:13:34Z</time>
            </trkpt>
            <trkpt lon="101.490549" lat="12.641261">
                <ele>2.060059</ele>
                <time>2008-11-30T03:13:37Z</time>
            </trkpt>
            <trkpt lon="101.490492" lat="12.641732">
                <ele>2.540649</ele>
                <time>2008-11-30T03:13:48Z</time>
            </trkpt>
            <trkpt lon="101.490492" lat="12.641749">
                <ele>3.021240</ele>
                <time>2008-11-30T03:13:49Z</time>
            </trkpt>
            <trkpt lon="101.490605" lat="12.641772">
                <ele>3.021240</ele>
                <time>2008-11-30T03:13:54Z</time>
            </trkpt>
            <trkpt lon="101.490681" lat="12.641758">
                <ele>3.021240</ele>
                <time>2008-11-30T03:13:56Z</time>
            </trkpt>
            <trkpt lon="101.490827" lat="12.642009">
                <ele>6.385864</ele>
                <time>2008-11-30T03:14:03Z</time>
            </trkpt>
            <trkpt lon="101.490855" lat="12.642107">
                <ele>7.347168</ele>
                <time>2008-11-30T03:14:05Z</time>
            </trkpt>
            <trkpt lon="101.491209" lat="12.643060">
                <ele>11.673218</ele>
                <time>2008-11-30T03:14:24Z</time>
            </trkpt>
            <trkpt lon="101.491319" lat="12.643499">
                <ele>12.153809</ele>
                <time>2008-11-30T03:14:32Z</time>
            </trkpt>
            <trkpt lon="101.491632" lat="12.644401">
                <ele>10.231201</ele>
                <time>2008-11-30T03:14:49Z</time>
            </trkpt>
            <trkpt lon="101.491665" lat="12.644463">
                <ele>9.750610</ele>
                <time>2008-11-30T03:14:51Z</time>
            </trkpt>
            <trkpt lon="101.492636" lat="12.644091">
                <ele>7.827881</ele>
                <time>2008-11-30T03:15:12Z</time>
            </trkpt>
            <trkpt lon="101.493434" lat="12.643892">
                <ele>7.827881</ele>
                <time>2008-11-30T03:15:26Z</time>
            </trkpt>
            <trkpt lon="101.493599" lat="12.643861">
                <ele>7.347168</ele>
                <time>2008-11-30T03:15:29Z</time>
            </trkpt>
            <trkpt lon="101.493737" lat="12.643933">
                <ele>7.347168</ele>
                <time>2008-11-30T03:15:33Z</time>
            </trkpt>
            <trkpt lon="101.493771" lat="12.644300">
                <ele>7.347168</ele>
                <time>2008-11-30T03:15:39Z</time>
            </trkpt>
            <trkpt lon="101.493853" lat="12.644566">
                <ele>6.866455</ele>
                <time>2008-11-30T03:15:43Z</time>
            </trkpt>
            <trkpt lon="101.493616" lat="12.645076">
                <ele>5.424561</ele>
                <time>2008-11-30T03:15:51Z</time>
            </trkpt>
            <trkpt lon="101.493569" lat="12.645335">
                <ele>5.424561</ele>
                <time>2008-11-30T03:15:55Z</time>
            </trkpt>
            <trkpt lon="101.493645" lat="12.646296">
                <ele>6.385864</ele>
                <time>2008-11-30T03:16:10Z</time>
            </trkpt>
            <trkpt lon="101.493715" lat="12.647382">
                <ele>3.982666</ele>
                <time>2008-11-30T03:16:27Z</time>
            </trkpt>
            <trkpt lon="101.493807" lat="12.648697">
                <ele>4.463257</ele>
                <time>2008-11-30T03:16:48Z</time>
            </trkpt>
            <trkpt lon="101.493921" lat="12.649221">
                <ele>5.424561</ele>
                <time>2008-11-30T03:16:58Z</time>
            </trkpt>
            <trkpt lon="101.494036" lat="12.649756">
                <ele>9.269898</ele>
                <time>2008-11-30T03:17:12Z</time>
            </trkpt>
            <trkpt lon="101.494086" lat="12.650344">
                <ele>12.634399</ele>
                <time>2008-11-30T03:17:27Z</time>
            </trkpt>
            <trkpt lon="101.493593" lat="12.650993">
                <ele>13.595825</ele>
                <time>2008-11-30T03:17:44Z</time>
            </trkpt>
            <trkpt lon="101.492671" lat="12.651950">
                <ele>9.750610</ele>
                <time>2008-11-30T03:18:07Z</time>
            </trkpt>
            <trkpt lon="101.491849" lat="12.652882">
                <ele>6.866455</ele>
                <time>2008-11-30T03:18:27Z</time>
            </trkpt>
            <trkpt lon="101.491102" lat="12.653787">
                <ele>4.463257</ele>
                <time>2008-11-30T03:18:45Z</time>
            </trkpt>
            <trkpt lon="101.490321" lat="12.654778">
                <ele>5.905273</ele>
                <time>2008-11-30T03:19:06Z</time>
            </trkpt>
            <trkpt lon="101.489764" lat="12.655570">
                <ele>9.269898</ele>
                <time>2008-11-30T03:19:24Z</time>
            </trkpt>
            <trkpt lon="101.489337" lat="12.656269">
                <ele>11.673218</ele>
                <time>2008-11-30T03:19:41Z</time>
            </trkpt>
            <trkpt lon="101.488930" lat="12.657197">
                <ele>13.595825</ele>
                <time>2008-11-30T03:20:02Z</time>
            </trkpt>
            <trkpt lon="101.488309" lat="12.658179">
                <ele>12.153809</ele>
                <time>2008-11-30T03:20:22Z</time>
            </trkpt>
            <trkpt lon="101.487638" lat="12.659104">
                <ele>13.115112</ele>
                <time>2008-11-30T03:20:42Z</time>
            </trkpt>
            <trkpt lon="101.487155" lat="12.659970">
                <ele>13.595825</ele>
                <time>2008-11-30T03:20:58Z</time>
            </trkpt>
            <trkpt lon="101.486976" lat="12.660525">
                <ele>12.153809</ele>
                <time>2008-11-30T03:21:10Z</time>
            </trkpt>
            <trkpt lon="101.486924" lat="12.660554">
                <ele>11.673218</ele>
                <time>2008-11-30T03:21:17Z</time>
            </trkpt>
            <trkpt lon="101.486832" lat="12.660582">
                <ele>11.192505</ele>
                <time>2008-11-30T03:21:21Z</time>
            </trkpt>
            <trkpt lon="101.486558" lat="12.660710">
                <ele>8.789185</ele>
                <time>2008-11-30T03:21:29Z</time>
            </trkpt>
            <trkpt lon="101.486204" lat="12.660749">
                <ele>7.827881</ele>
                <time>2008-11-30T03:21:39Z</time>
            </trkpt>
            <trkpt lon="101.485881" lat="12.660851">
                <ele>7.827881</ele>
                <time>2008-11-30T03:21:46Z</time>
            </trkpt>
            <trkpt lon="101.484870" lat="12.660901">
                <ele>6.385864</ele>
                <time>2008-11-30T03:22:03Z</time>
            </trkpt>
            <trkpt lon="101.484065" lat="12.660946">
                <ele>5.905273</ele>
                <time>2008-11-30T03:22:18Z</time>
            </trkpt>
            <trkpt lon="101.483987" lat="12.661074">
                <ele>6.866455</ele>
                <time>2008-11-30T03:22:23Z</time>
            </trkpt>
            <trkpt lon="101.483972" lat="12.661747">
                <ele>10.711792</ele>
                <time>2008-11-30T03:22:39Z</time>
            </trkpt>
            <trkpt lon="101.484086" lat="12.662865">
                <ele>16.960449</ele>
                <time>2008-11-30T03:23:09Z</time>
            </trkpt>
            <trkpt lon="101.484272" lat="12.663489">
                <ele>14.076416</ele>
                <time>2008-11-30T03:23:29Z</time>
            </trkpt>
            <trkpt lon="101.484413" lat="12.663847">
                <ele>15.518433</ele>
                <time>2008-11-30T03:23:41Z</time>
            </trkpt>
            <trkpt lon="101.484496" lat="12.664146">
                <ele>15.518433</ele>
                <time>2008-11-30T03:23:53Z</time>
            </trkpt>
            <trkpt lon="101.484633" lat="12.664462">
                <ele>18.883057</ele>
                <time>2008-11-30T03:24:10Z</time>
            </trkpt>
            <trkpt lon="101.484657" lat="12.664534">
                <ele>19.844360</ele>
                <time>2008-11-30T03:24:21Z</time>
            </trkpt>
            <trkpt lon="101.484644" lat="12.664522">
                <ele>19.363770</ele>
                <time>2008-11-30T03:24:35Z</time>
            </trkpt>
            <trkpt lon="101.484580" lat="12.664482">
                <ele>18.883057</ele>
                <time>2008-11-30T03:24:39Z</time>
            </trkpt>
            <trkpt lon="101.484504" lat="12.664485">
                <ele>18.402344</ele>
                <time>2008-11-30T03:24:42Z</time>
            </trkpt>
            <trkpt lon="101.484317" lat="12.664495">
                <ele>19.363770</ele>
                <time>2008-11-30T03:24:49Z</time>
            </trkpt>
            <trkpt lon="101.483775" lat="12.664537">
                <ele>19.363770</ele>
                <time>2008-11-30T03:25:08Z</time>
            </trkpt>
            <trkpt lon="101.483113" lat="12.664548">
                <ele>24.170288</ele>
                <time>2008-11-30T03:25:27Z</time>
            </trkpt>
            <trkpt lon="101.482253" lat="12.664587">
                <ele>21.286377</ele>
                <time>2008-11-30T03:25:45Z</time>
            </trkpt>
            <trkpt lon="101.481750" lat="12.664625">
                <ele>19.844360</ele>
                <time>2008-11-30T03:25:55Z</time>
            </trkpt>
            <trkpt lon="101.481171" lat="12.664664">
                <ele>19.844360</ele>
                <time>2008-11-30T03:26:06Z</time>
            </trkpt>
            <trkpt lon="101.481085" lat="12.664775">
                <ele>19.844360</ele>
                <time>2008-11-30T03:26:10Z</time>
            </trkpt>
            <trkpt lon="101.480989" lat="12.664923">
                <ele>20.324951</ele>
                <time>2008-11-30T03:26:14Z</time>
            </trkpt>
            <trkpt lon="101.480729" lat="12.665521">
                <ele>16.479736</ele>
                <time>2008-11-30T03:26:29Z</time>
            </trkpt>
            <trkpt lon="101.480749" lat="12.665621">
                <ele>15.999023</ele>
                <time>2008-11-30T03:26:31Z</time>
            </trkpt>
            <trkpt lon="101.480699" lat="12.665771">
                <ele>16.479736</ele>
                <time>2008-11-30T03:26:34Z</time>
            </trkpt>
            <trkpt lon="101.480181" lat="12.666110">
                <ele>15.999023</ele>
                <time>2008-11-30T03:26:46Z</time>
            </trkpt>
            <trkpt lon="101.479498" lat="12.666404">
                <ele>20.324951</ele>
                <time>2008-11-30T03:27:06Z</time>
            </trkpt>
            <trkpt lon="101.479072" lat="12.666657">
                <ele>23.689575</ele>
                <time>2008-11-30T03:27:20Z</time>
            </trkpt>
            <trkpt lon="101.478193" lat="12.666643">
                <ele>20.324951</ele>
                <time>2008-11-30T03:27:36Z</time>
            </trkpt>
            <trkpt lon="101.478058" lat="12.666808">
                <ele>21.766968</ele>
                <time>2008-11-30T03:27:40Z</time>
            </trkpt>
            <trkpt lon="101.478122" lat="12.666980">
                <ele>21.766968</ele>
                <time>2008-11-30T03:27:43Z</time>
            </trkpt>
            <trkpt lon="101.478033" lat="12.667210">
                <ele>19.363770</ele>
                <time>2008-11-30T03:27:48Z</time>
            </trkpt>
            <trkpt lon="101.477049" lat="12.667800">
                <ele>15.037720</ele>
                <time>2008-11-30T03:28:04Z</time>
            </trkpt>
            <trkpt lon="101.476025" lat="12.668345">
                <ele>12.634399</ele>
                <time>2008-11-30T03:28:22Z</time>
            </trkpt>
            <trkpt lon="101.474836" lat="12.669039">
                <ele>13.595825</ele>
                <time>2008-11-30T03:28:47Z</time>
            </trkpt>
            <trkpt lon="101.474795" lat="12.669296">
                <ele>14.557007</ele>
                <time>2008-11-30T03:28:53Z</time>
            </trkpt>
            <trkpt lon="101.474912" lat="12.669592">
                <ele>15.999023</ele>
                <time>2008-11-30T03:29:00Z</time>
            </trkpt>
            <trkpt lon="101.475227" lat="12.670378">
                <ele>16.960449</ele>
                <time>2008-11-30T03:29:18Z</time>
            </trkpt>
            <trkpt lon="101.475449" lat="12.670894">
                <ele>17.921753</ele>
                <time>2008-11-30T03:29:28Z</time>
            </trkpt>
            <trkpt lon="101.475635" lat="12.671319">
                <ele>17.921753</ele>
                <time>2008-11-30T03:29:37Z</time>
            </trkpt>
            <trkpt lon="101.475735" lat="12.671565">
                <ele>19.363770</ele>
                <time>2008-11-30T03:29:43Z</time>
            </trkpt>
            <trkpt lon="101.475931" lat="12.671523">
                <ele>19.363770</ele>
                <time>2008-11-30T03:29:48Z</time>
            </trkpt>
            <trkpt lon="101.476019" lat="12.671551">
                <ele>19.844360</ele>
                <time>2008-11-30T03:29:51Z</time>
            </trkpt>
            <trkpt lon="101.476013" lat="12.671799">
                <ele>21.766968</ele>
                <time>2008-11-30T03:29:57Z</time>
            </trkpt>
            <trkpt lon="101.476007" lat="12.673404">
                <ele>21.766968</ele>
                <time>2008-11-30T03:30:22Z</time>
            </trkpt>
            <trkpt lon="101.475944" lat="12.673348">
                <ele>21.766968</ele>
                <time>2008-11-30T03:30:24Z</time>
            </trkpt>
            <trkpt lon="101.476080" lat="12.673488">
                <ele>24.170288</ele>
                <time>2008-11-30T03:30:35Z</time>
            </trkpt>
            <trkpt lon="101.476105" lat="12.673490">
                <ele>24.170288</ele>
                <time>2008-11-30T03:30:38Z</time>
            </trkpt>
            <trkpt lon="101.476202" lat="12.673498">
                <ele>26.573608</ele>
                <time>2008-11-30T03:30:45Z</time>
            </trkpt>
            <trkpt lon="101.476255" lat="12.673493">
                <ele>27.054321</ele>
                <time>2008-11-30T03:30:59Z</time>
            </trkpt>
            <trkpt lon="101.476304" lat="12.673509">
                <ele>30.418823</ele>
                <time>2008-11-30T03:31:35Z</time>
            </trkpt>
            <trkpt lon="101.476332" lat="12.673529">
                <ele>32.341553</ele>
                <time>2008-11-30T03:32:25Z</time>
            </trkpt>
            <trkpt lon="101.476330" lat="12.673603">
                <ele>31.860718</ele>
                <time>2008-11-30T03:32:30Z</time>
            </trkpt>
            <trkpt lon="101.476324" lat="12.674162">
                <ele>31.380127</ele>
                <time>2008-11-30T03:32:50Z</time>
            </trkpt>
            <trkpt lon="101.476347" lat="12.674905">
                <ele>34.744873</ele>
                <time>2008-11-30T03:33:11Z</time>
            </trkpt>
            <trkpt lon="101.476277" lat="12.675228">
                <ele>36.667481</ele>
                <time>2008-11-30T03:33:22Z</time>
            </trkpt>
            <trkpt lon="101.475770" lat="12.675625">
                <ele>36.186768</ele>
                <time>2008-11-30T03:33:37Z</time>
            </trkpt>
            <trkpt lon="101.474880" lat="12.675728">
                <ele>36.667481</ele>
                <time>2008-11-30T03:33:57Z</time>
            </trkpt>
            <trkpt lon="101.473829" lat="12.675834">
                <ele>33.783447</ele>
                <time>2008-11-30T03:34:18Z</time>
            </trkpt>
            <trkpt lon="101.473116" lat="12.675945">
                <ele>37.628662</ele>
                <time>2008-11-30T03:34:35Z</time>
            </trkpt>
            <trkpt lon="101.473078" lat="12.675799">
                <ele>37.628662</ele>
                <time>2008-11-30T03:34:40Z</time>
            </trkpt>
            <trkpt lon="101.473087" lat="12.675673">
                <ele>37.628662</ele>
                <time>2008-11-30T03:34:43Z</time>
            </trkpt>
            <trkpt lon="101.473098" lat="12.675542">
                <ele>36.667481</ele>
                <time>2008-11-30T03:34:47Z</time>
            </trkpt>
            <trkpt lon="101.473133" lat="12.674805">
                <ele>34.744873</ele>
                <time>2008-11-30T03:35:01Z</time>
            </trkpt>
            <trkpt lon="101.473125" lat="12.674710">
                <ele>34.264160</ele>
                <time>2008-11-30T03:35:03Z</time>
            </trkpt>
            <trkpt lon="101.472945" lat="12.674626">
                <ele>32.822266</ele>
                <time>2008-11-30T03:35:09Z</time>
            </trkpt>
            <trkpt lon="101.472277" lat="12.674691">
                <ele>30.418823</ele>
                <time>2008-11-30T03:35:26Z</time>
            </trkpt>
            <trkpt lon="101.472201" lat="12.674981">
                <ele>32.341553</ele>
                <time>2008-11-30T03:35:37Z</time>
            </trkpt>
            <trkpt lon="101.472064" lat="12.675396">
                <ele>32.341553</ele>
                <time>2008-11-30T03:35:52Z</time>
            </trkpt>
            <trkpt lon="101.471998" lat="12.675731">
                <ele>33.302856</ele>
                <time>2008-11-30T03:36:00Z</time>
            </trkpt>
            <trkpt lon="101.472079" lat="12.676674">
                <ele>32.341553</ele>
                <time>2008-11-30T03:36:18Z</time>
            </trkpt>
            <trkpt lon="101.472123" lat="12.677064">
                <ele>32.341553</ele>
                <time>2008-11-30T03:36:26Z</time>
            </trkpt>
            <trkpt lon="101.472109" lat="12.677310">
                <ele>29.938110</ele>
                <time>2008-11-30T03:36:31Z</time>
            </trkpt>
            <trkpt lon="101.471827" lat="12.677655">
                <ele>31.860718</ele>
                <time>2008-11-30T03:36:42Z</time>
            </trkpt>
            <trkpt lon="101.471749" lat="12.677747">
                <ele>31.860718</ele>
                <time>2008-11-30T03:36:45Z</time>
            </trkpt>
            <trkpt lon="101.471222" lat="12.677740">
                <ele>33.302856</ele>
                <time>2008-11-30T03:36:58Z</time>
            </trkpt>
            <trkpt lon="101.471175" lat="12.677736">
                <ele>32.822266</ele>
                <time>2008-11-30T03:36:59Z</time>
            </trkpt>
            <trkpt lon="101.470165" lat="12.677744">
                <ele>32.341553</ele>
                <time>2008-11-30T03:37:17Z</time>
            </trkpt>
            <trkpt lon="101.470103" lat="12.677754">
                <ele>32.341553</ele>
                <time>2008-11-30T03:37:18Z</time>
            </trkpt>
            <trkpt lon="101.468914" lat="12.677610">
                <ele>31.860718</ele>
                <time>2008-11-30T03:37:35Z</time>
            </trkpt>
            <trkpt lon="101.467811" lat="12.677193">
                <ele>28.976929</ele>
                <time>2008-11-30T03:37:51Z</time>
            </trkpt>
            <trkpt lon="101.467399" lat="12.677060">
                <ele>28.976929</ele>
                <time>2008-11-30T03:37:57Z</time>
            </trkpt>
            <trkpt lon="101.467223" lat="12.677196">
                <ele>27.534912</ele>
                <time>2008-11-30T03:38:03Z</time>
            </trkpt>
            <trkpt lon="101.467008" lat="12.677907">
                <ele>24.651001</ele>
                <time>2008-11-30T03:38:14Z</time>
            </trkpt>
            <trkpt lon="101.466768" lat="12.678098">
                <ele>22.728272</ele>
                <time>2008-11-30T03:38:19Z</time>
            </trkpt>
            <trkpt lon="101.466291" lat="12.678129">
                <ele>22.728272</ele>
                <time>2008-11-30T03:38:27Z</time>
            </trkpt>
            <trkpt lon="101.465845" lat="12.678011">
                <ele>22.247559</ele>
                <time>2008-11-30T03:38:35Z</time>
            </trkpt>
            <trkpt lon="101.465518" lat="12.678008">
                <ele>22.247559</ele>
                <time>2008-11-30T03:38:41Z</time>
            </trkpt>
            <trkpt lon="101.464953" lat="12.678205">
                <ele>23.208984</ele>
                <time>2008-11-30T03:38:55Z</time>
            </trkpt>
            <trkpt lon="101.464665" lat="12.678000">
                <ele>26.573608</ele>
                <time>2008-11-30T03:39:08Z</time>
            </trkpt>
            <trkpt lon="101.464178" lat="12.677742">
                <ele>30.899536</ele>
                <time>2008-11-30T03:39:25Z</time>
            </trkpt>
            <trkpt lon="101.463933" lat="12.677647">
                <ele>31.860718</ele>
                <time>2008-11-30T03:39:32Z</time>
            </trkpt>
            <trkpt lon="101.463821" lat="12.677670">
                <ele>34.264160</ele>
                <time>2008-11-30T03:39:45Z</time>
            </trkpt>
            <trkpt lon="101.463545" lat="12.677792">
                <ele>33.302856</ele>
                <time>2008-11-30T03:39:56Z</time>
            </trkpt>
            <trkpt lon="101.463122" lat="12.677962">
                <ele>31.380127</ele>
                <time>2008-11-30T03:40:05Z</time>
            </trkpt>
            <trkpt lon="101.462315" lat="12.678181">
                <ele>32.822266</ele>
                <time>2008-11-30T03:40:22Z</time>
            </trkpt>
            <trkpt lon="101.462005" lat="12.678173">
                <ele>33.302856</ele>
                <time>2008-11-30T03:40:29Z</time>
            </trkpt>
            <trkpt lon="101.461851" lat="12.678076">
                <ele>33.302856</ele>
                <time>2008-11-30T03:40:34Z</time>
            </trkpt>
            <trkpt lon="101.461386" lat="12.676926">
                <ele>31.860718</ele>
                <time>2008-11-30T03:40:54Z</time>
            </trkpt>
            <trkpt lon="101.461248" lat="12.676263">
                <ele>29.457520</ele>
                <time>2008-11-30T03:41:09Z</time>
            </trkpt>
            <trkpt lon="101.461285" lat="12.675610">
                <ele>29.457520</ele>
                <time>2008-11-30T03:41:24Z</time>
            </trkpt>
            <trkpt lon="101.461026" lat="12.675342">
                <ele>31.380127</ele>
                <time>2008-11-30T03:41:37Z</time>
            </trkpt>
            <trkpt lon="101.460619" lat="12.675246">
                <ele>35.706055</ele>
                <time>2008-11-30T03:41:54Z</time>
            </trkpt>
            <trkpt lon="101.460587" lat="12.675262">
                <ele>35.706055</ele>
                <time>2008-11-30T03:41:56Z</time>
            </trkpt>
            <trkpt lon="101.460309" lat="12.675215">
                <ele>37.628662</ele>
                <time>2008-11-30T03:42:11Z</time>
            </trkpt>
            <trkpt lon="101.460290" lat="12.675212">
                <ele>37.628662</ele>
                <time>2008-11-30T03:42:12Z</time>
            </trkpt>
            <trkpt lon="101.460244" lat="12.674856">
                <ele>33.783447</ele>
                <time>2008-11-30T03:42:26Z</time>
            </trkpt>
            <trkpt lon="101.460409" lat="12.674535">
                <ele>29.938110</ele>
                <time>2008-11-30T03:42:38Z</time>
            </trkpt>
            <trkpt lon="101.460602" lat="12.674209">
                <ele>29.457520</ele>
                <time>2008-11-30T03:42:50Z</time>
            </trkpt>
            <trkpt lon="101.460617" lat="12.674117">
                <ele>29.457520</ele>
                <time>2008-11-30T03:42:52Z</time>
            </trkpt>
            <trkpt lon="101.460708" lat="12.673680">
                <ele>30.418823</ele>
                <time>2008-11-30T03:43:04Z</time>
            </trkpt>
            <trkpt lon="101.460782" lat="12.673400">
                <ele>27.534912</ele>
                <time>2008-11-30T03:43:11Z</time>
            </trkpt>
            <trkpt lon="101.460797" lat="12.673220">
                <ele>26.092896</ele>
                <time>2008-11-30T03:43:15Z</time>
            </trkpt>
            <trkpt lon="101.460778" lat="12.672854">
                <ele>24.651001</ele>
                <time>2008-11-30T03:43:23Z</time>
            </trkpt>
            <trkpt lon="101.460667" lat="12.672803">
                <ele>24.651001</ele>
                <time>2008-11-30T03:43:28Z</time>
            </trkpt>
            <trkpt lon="101.460156" lat="12.672924">
                <ele>22.728272</ele>
                <time>2008-11-30T03:43:46Z</time>
            </trkpt>
            <trkpt lon="101.460130" lat="12.672978">
                <ele>22.247559</ele>
                <time>2008-11-30T03:43:56Z</time>
            </trkpt>
            <trkpt lon="101.460117" lat="12.672983">
                <ele>21.766968</ele>
                <time>2008-11-30T03:44:19Z</time>
            </trkpt>
            <trkpt lon="101.460108" lat="12.672975">
                <ele>18.883057</ele>
                <time>2008-11-30T04:06:05Z</time>
            </trkpt>
            <trkpt lon="101.460121" lat="12.672951">
                <ele>18.402344</ele>
                <time>2008-11-30T04:06:21Z</time>
            </trkpt>
            <trkpt lon="101.460086" lat="12.672954">
                <ele>18.402344</ele>
                <time>2008-11-30T04:06:40Z</time>
            </trkpt>
            <trkpt lon="101.459791" lat="12.672971">
                <ele>17.441162</ele>
                <time>2008-11-30T04:06:54Z</time>
            </trkpt>
            <trkpt lon="101.459135" lat="12.673013">
                <ele>17.441162</ele>
                <time>2008-11-30T04:07:11Z</time>
            </trkpt>
            <trkpt lon="101.459011" lat="12.673034">
                <ele>17.441162</ele>
                <time>2008-11-30T04:07:14Z</time>
            </trkpt>
            <trkpt lon="101.458814" lat="12.673287">
                <ele>17.441162</ele>
                <time>2008-11-30T04:07:22Z</time>
            </trkpt>
            <trkpt lon="101.458793" lat="12.673888">
                <ele>17.921753</ele>
                <time>2008-11-30T04:07:38Z</time>
            </trkpt>
            <trkpt lon="101.458887" lat="12.674515">
                <ele>19.844360</ele>
                <time>2008-11-30T04:07:59Z</time>
            </trkpt>
            <trkpt lon="101.458861" lat="12.674819">
                <ele>21.286377</ele>
                <time>2008-11-30T04:08:13Z</time>
            </trkpt>
            <trkpt lon="101.458543" lat="12.675125">
                <ele>21.766968</ele>
                <time>2008-11-30T04:08:26Z</time>
            </trkpt>
            <trkpt lon="101.458198" lat="12.675614">
                <ele>22.728272</ele>
                <time>2008-11-30T04:08:42Z</time>
            </trkpt>
            <trkpt lon="101.457777" lat="12.676217">
                <ele>23.208984</ele>
                <time>2008-11-30T04:09:00Z</time>
            </trkpt>
            <trkpt lon="101.457323" lat="12.676627">
                <ele>23.208984</ele>
                <time>2008-11-30T04:09:13Z</time>
            </trkpt>
            <trkpt lon="101.457176" lat="12.676696">
                <ele>23.689575</ele>
                <time>2008-11-30T04:09:17Z</time>
            </trkpt>
            <trkpt lon="101.457085" lat="12.676702">
                <ele>23.208984</ele>
                <time>2008-11-30T04:09:19Z</time>
            </trkpt>
            <trkpt lon="101.456503" lat="12.676768">
                <ele>18.883057</ele>
                <time>2008-11-30T04:09:29Z</time>
            </trkpt>
            <trkpt lon="101.456121" lat="12.676526">
                <ele>19.844360</ele>
                <time>2008-11-30T04:09:37Z</time>
            </trkpt>
            <trkpt lon="101.455906" lat="12.676380">
                <ele>21.766968</ele>
                <time>2008-11-30T04:09:42Z</time>
            </trkpt>
            <trkpt lon="101.455552" lat="12.676626">
                <ele>22.728272</ele>
                <time>2008-11-30T04:09:52Z</time>
            </trkpt>
            <trkpt lon="101.455395" lat="12.676832">
                <ele>22.728272</ele>
                <time>2008-11-30T04:09:57Z</time>
            </trkpt>
            <trkpt lon="101.454952" lat="12.677459">
                <ele>21.766968</ele>
                <time>2008-11-30T04:10:11Z</time>
            </trkpt>
            <trkpt lon="101.454162" lat="12.677848">
                <ele>22.247559</ele>
                <time>2008-11-30T04:10:28Z</time>
            </trkpt>
            <trkpt lon="101.453983" lat="12.677860">
                <ele>23.689575</ele>
                <time>2008-11-30T04:10:32Z</time>
            </trkpt>
            <trkpt lon="101.453230" lat="12.677557">
                <ele>25.131714</ele>
                <time>2008-11-30T04:10:52Z</time>
            </trkpt>
            <trkpt lon="101.452484" lat="12.677496">
                <ele>27.054321</ele>
                <time>2008-11-30T04:11:09Z</time>
            </trkpt>
            <trkpt lon="101.451718" lat="12.677730">
                <ele>28.015503</ele>
                <time>2008-11-30T04:11:28Z</time>
            </trkpt>
            <trkpt lon="101.450910" lat="12.678188">
                <ele>26.573608</ele>
                <time>2008-11-30T04:11:49Z</time>
            </trkpt>
            <trkpt lon="101.450723" lat="12.678188">
                <ele>27.534912</ele>
                <time>2008-11-30T04:11:53Z</time>
            </trkpt>
            <trkpt lon="101.450003" lat="12.678082">
                <ele>28.976929</ele>
                <time>2008-11-30T04:12:09Z</time>
            </trkpt>
            <trkpt lon="101.449265" lat="12.677951">
                <ele>27.534912</ele>
                <time>2008-11-30T04:12:27Z</time>
            </trkpt>
            <trkpt lon="101.448731" lat="12.677914">
                <ele>30.899536</ele>
                <time>2008-11-30T04:12:41Z</time>
            </trkpt>
            <trkpt lon="101.447950" lat="12.677868">
                <ele>36.186768</ele>
                <time>2008-11-30T04:12:59Z</time>
            </trkpt>
            <trkpt lon="101.447169" lat="12.677839">
                <ele>36.186768</ele>
                <time>2008-11-30T04:13:14Z</time>
            </trkpt>
            <trkpt lon="101.446117" lat="12.677655">
                <ele>32.822266</ele>
                <time>2008-11-30T04:13:27Z</time>
            </trkpt>
            <trkpt lon="101.445705" lat="12.677589">
                <ele>33.302856</ele>
                <time>2008-11-30T04:13:32Z</time>
            </trkpt>
            <trkpt lon="101.445391" lat="12.677369">
                <ele>33.783447</ele>
                <time>2008-11-30T04:13:37Z</time>
            </trkpt>
            <trkpt lon="101.445085" lat="12.677308">
                <ele>32.341553</ele>
                <time>2008-11-30T04:13:41Z</time>
            </trkpt>
            <trkpt lon="101.444729" lat="12.677346">
                <ele>30.418823</ele>
                <time>2008-11-30T04:13:45Z</time>
            </trkpt>
            <trkpt lon="101.444386" lat="12.677504">
                <ele>28.015503</ele>
                <time>2008-11-30T04:13:49Z</time>
            </trkpt>
            <trkpt lon="101.443979" lat="12.677831">
                <ele>24.651001</ele>
                <time>2008-11-30T04:13:54Z</time>
            </trkpt>
            <trkpt lon="101.442997" lat="12.678153">
                <ele>24.170288</ele>
                <time>2008-11-30T04:14:05Z</time>
            </trkpt>
            <trkpt lon="101.441858" lat="12.678339">
                <ele>25.612305</ele>
                <time>2008-11-30T04:14:20Z</time>
            </trkpt>
            <trkpt lon="101.441692" lat="12.678209">
                <ele>25.131714</ele>
                <time>2008-11-30T04:14:25Z</time>
            </trkpt>
            <trkpt lon="101.441506" lat="12.677198">
                <ele>23.208984</ele>
                <time>2008-11-30T04:14:40Z</time>
            </trkpt>
            <trkpt lon="101.441193" lat="12.675721">
                <ele>22.247559</ele>
                <time>2008-11-30T04:14:59Z</time>
            </trkpt>
            <trkpt lon="101.440783" lat="12.674520">
                <ele>21.766968</ele>
                <time>2008-11-30T04:15:15Z</time>
            </trkpt>
            <trkpt lon="101.440579" lat="12.674015">
                <ele>21.286377</ele>
                <time>2008-11-30T04:15:22Z</time>
            </trkpt>
            <trkpt lon="101.440775" lat="12.672535">
                <ele>22.247559</ele>
                <time>2008-11-30T04:15:42Z</time>
            </trkpt>
            <trkpt lon="101.441077" lat="12.670677">
                <ele>21.766968</ele>
                <time>2008-11-30T04:16:06Z</time>
            </trkpt>
            <trkpt lon="101.441291" lat="12.669646">
                <ele>19.363770</ele>
                <time>2008-11-30T04:16:20Z</time>
            </trkpt>
            <trkpt lon="101.443316" lat="12.668300">
                <ele>15.518433</ele>
                <time>2008-11-30T04:17:00Z</time>
            </trkpt>
            <trkpt lon="101.444079" lat="12.667952">
                <ele>15.037720</ele>
                <time>2008-11-30T04:17:14Z</time>
            </trkpt>
            <trkpt lon="101.445132" lat="12.667418">
                <ele>12.634399</ele>
                <time>2008-11-30T04:17:32Z</time>
            </trkpt>
            <trkpt lon="101.445496" lat="12.667092">
                <ele>12.634399</ele>
                <time>2008-11-30T04:17:39Z</time>
            </trkpt>
            <trkpt lon="101.445586" lat="12.666979">
                <ele>12.634399</ele>
                <time>2008-11-30T04:17:41Z</time>
            </trkpt>
            <trkpt lon="101.445692" lat="12.666564">
                <ele>11.673218</ele>
                <time>2008-11-30T04:17:47Z</time>
            </trkpt>
            <trkpt lon="101.445515" lat="12.665665">
                <ele>11.673218</ele>
                <time>2008-11-30T04:18:00Z</time>
            </trkpt>
            <trkpt lon="101.445426" lat="12.665266">
                <ele>11.673218</ele>
                <time>2008-11-30T04:18:06Z</time>
            </trkpt>
            <trkpt lon="101.445089" lat="12.665105">
                <ele>11.192505</ele>
                <time>2008-11-30T04:18:12Z</time>
            </trkpt>
            <trkpt lon="101.444753" lat="12.664776">
                <ele>11.673218</ele>
                <time>2008-11-30T04:18:20Z</time>
            </trkpt>
            <trkpt lon="101.444732" lat="12.664653">
                <ele>11.192505</ele>
                <time>2008-11-30T04:18:22Z</time>
            </trkpt>
            <trkpt lon="101.444710" lat="12.664468">
                <ele>11.192505</ele>
                <time>2008-11-30T04:18:25Z</time>
            </trkpt>
            <trkpt lon="101.444598" lat="12.664152">
                <ele>10.711792</ele>
                <time>2008-11-30T04:18:30Z</time>
            </trkpt>
            <trkpt lon="101.444456" lat="12.663934">
                <ele>11.192505</ele>
                <time>2008-11-30T04:18:34Z</time>
            </trkpt>
            <trkpt lon="101.444405" lat="12.663692">
                <ele>11.192505</ele>
                <time>2008-11-30T04:18:38Z</time>
            </trkpt>
            <trkpt lon="101.444408" lat="12.663247">
                <ele>11.673218</ele>
                <time>2008-11-30T04:18:45Z</time>
            </trkpt>
            <trkpt lon="101.443985" lat="12.662548">
                <ele>13.115112</ele>
                <time>2008-11-30T04:18:58Z</time>
            </trkpt>
            <trkpt lon="101.443612" lat="12.661750">
                <ele>13.595825</ele>
                <time>2008-11-30T04:19:13Z</time>
            </trkpt>
            <trkpt lon="101.443399" lat="12.661016">
                <ele>15.037720</ele>
                <time>2008-11-30T04:19:28Z</time>
            </trkpt>
            <trkpt lon="101.443371" lat="12.661035">
                <ele>15.518433</ele>
                <time>2008-11-30T04:19:32Z</time>
            </trkpt>
            <trkpt lon="101.443472" lat="12.661431">
                <ele>15.518433</ele>
                <time>2008-11-30T04:19:44Z</time>
            </trkpt>
            <trkpt lon="101.443803" lat="12.662288">
                <ele>14.557007</ele>
                <time>2008-11-30T04:20:02Z</time>
            </trkpt>
            <trkpt lon="101.443978" lat="12.662567">
                <ele>12.634399</ele>
                <time>2008-11-30T04:20:13Z</time>
            </trkpt>
            <trkpt lon="101.444042" lat="12.662655">
                <ele>12.153809</ele>
                <time>2008-11-30T04:20:17Z</time>
            </trkpt>
            <trkpt lon="101.444148" lat="12.662642">
                <ele>12.153809</ele>
                <time>2008-11-30T04:20:21Z</time>
            </trkpt>
            <trkpt lon="101.444814" lat="12.662423">
                <ele>11.192505</ele>
                <time>2008-11-30T04:20:35Z</time>
            </trkpt>
            <trkpt lon="101.445221" lat="12.662288">
                <ele>10.711792</ele>
                <time>2008-11-30T04:20:43Z</time>
            </trkpt>
            <trkpt lon="101.445910" lat="12.662063">
                <ele>11.192505</ele>
                <time>2008-11-30T04:20:57Z</time>
            </trkpt>
            <trkpt lon="101.446444" lat="12.662122">
                <ele>10.711792</ele>
                <time>2008-11-30T04:21:07Z</time>
            </trkpt>
            <trkpt lon="101.446607" lat="12.661917">
                <ele>11.192505</ele>
                <time>2008-11-30T04:21:13Z</time>
            </trkpt>
            <trkpt lon="101.446735" lat="12.661107">
                <ele>11.673218</ele>
                <time>2008-11-30T04:21:29Z</time>
            </trkpt>
            <trkpt lon="101.446829" lat="12.660355">
                <ele>13.115112</ele>
                <time>2008-11-30T04:21:47Z</time>
            </trkpt>
            <trkpt lon="101.446846" lat="12.660304">
                <ele>13.595825</ele>
                <time>2008-11-30T04:21:49Z</time>
            </trkpt>
            <trkpt lon="101.446946" lat="12.660301">
                <ele>14.557007</ele>
                <time>2008-11-30T04:21:53Z</time>
            </trkpt>
            <trkpt lon="101.447751" lat="12.660426">
                <ele>15.518433</ele>
                <time>2008-11-30T04:22:10Z</time>
            </trkpt>
            <trkpt lon="101.448113" lat="12.660480">
                <ele>16.479736</ele>
                <time>2008-11-30T04:22:17Z</time>
            </trkpt>
            <trkpt lon="101.448357" lat="12.660459">
                <ele>15.037720</ele>
                <time>2008-11-30T04:22:22Z</time>
            </trkpt>
            <trkpt lon="101.448875" lat="12.661015">
                <ele>15.518433</ele>
                <time>2008-11-30T04:22:36Z</time>
            </trkpt>
            <trkpt lon="101.449640" lat="12.661151">
                <ele>13.115112</ele>
                <time>2008-11-30T04:22:46Z</time>
            </trkpt>
            <trkpt lon="101.450321" lat="12.661152">
                <ele>12.634399</ele>
                <time>2008-11-30T04:22:55Z</time>
            </trkpt>
            <trkpt lon="101.451074" lat="12.661431">
                <ele>11.192505</ele>
                <time>2008-11-30T04:23:05Z</time>
            </trkpt>
            <trkpt lon="101.451245" lat="12.661486">
                <ele>10.231201</ele>
                <time>2008-11-30T04:23:07Z</time>
            </trkpt>
            <trkpt lon="101.452033" lat="12.661563">
                <ele>7.347168</ele>
                <time>2008-11-30T04:23:16Z</time>
            </trkpt>
            <trkpt lon="101.452281" lat="12.661626">
                <ele>6.385864</ele>
                <time>2008-11-30T04:23:19Z</time>
            </trkpt>
            <trkpt lon="101.453007" lat="12.661474">
                <ele>5.424561</ele>
                <time>2008-11-30T04:23:28Z</time>
            </trkpt>
            <trkpt lon="101.453210" lat="12.661262">
                <ele>6.385864</ele>
                <time>2008-11-30T04:23:32Z</time>
            </trkpt>
            <trkpt lon="101.453481" lat="12.660845">
                <ele>8.789185</ele>
                <time>2008-11-30T04:23:40Z</time>
            </trkpt>
            <trkpt lon="101.453952" lat="12.660683">
                <ele>7.827881</ele>
                <time>2008-11-30T04:23:48Z</time>
            </trkpt>
            <trkpt lon="101.454727" lat="12.660647">
                <ele>6.385864</ele>
                <time>2008-11-30T04:23:59Z</time>
            </trkpt>
            <trkpt lon="101.454817" lat="12.660315">
                <ele>6.385864</ele>
                <time>2008-11-30T04:24:04Z</time>
            </trkpt>
            <trkpt lon="101.454731" lat="12.659938">
                <ele>8.308594</ele>
                <time>2008-11-30T04:24:10Z</time>
            </trkpt>
            <trkpt lon="101.454903" lat="12.659752">
                <ele>8.308594</ele>
                <time>2008-11-30T04:24:15Z</time>
            </trkpt>
            <trkpt lon="101.456047" lat="12.659412">
                <ele>5.424561</ele>
                <time>2008-11-30T04:24:30Z</time>
            </trkpt>
            <trkpt lon="101.456124" lat="12.659391">
                <ele>5.424561</ele>
                <time>2008-11-30T04:24:31Z</time>
            </trkpt>
            <trkpt lon="101.456447" lat="12.659396">
                <ele>5.424561</ele>
                <time>2008-11-30T04:24:35Z</time>
            </trkpt>
            <trkpt lon="101.456735" lat="12.659287">
                <ele>4.463257</ele>
                <time>2008-11-30T04:24:39Z</time>
            </trkpt>
            <trkpt lon="101.457033" lat="12.659024">
                <ele>3.982666</ele>
                <time>2008-11-30T04:24:44Z</time>
            </trkpt>
            <trkpt lon="101.457238" lat="12.658611">
                <ele>3.501953</ele>
                <time>2008-11-30T04:24:50Z</time>
            </trkpt>
            <trkpt lon="101.457324" lat="12.658174">
                <ele>3.501953</ele>
                <time>2008-11-30T04:24:56Z</time>
            </trkpt>
            <trkpt lon="101.457286" lat="12.657959">
                <ele>4.463257</ele>
                <time>2008-11-30T04:24:59Z</time>
            </trkpt>
            <trkpt lon="101.457387" lat="12.657672">
                <ele>3.982666</ele>
                <time>2008-11-30T04:25:04Z</time>
            </trkpt>
            <trkpt lon="101.457617" lat="12.657440">
                <ele>3.982666</ele>
                <time>2008-11-30T04:25:09Z</time>
            </trkpt>
            <trkpt lon="101.457686" lat="12.657240">
                <ele>4.943848</ele>
                <time>2008-11-30T04:25:12Z</time>
            </trkpt>
            <trkpt lon="101.458091" lat="12.656277">
                <ele>5.905273</ele>
                <time>2008-11-30T04:25:28Z</time>
            </trkpt>
            <trkpt lon="101.458558" lat="12.655729">
                <ele>8.789185</ele>
                <time>2008-11-30T04:25:42Z</time>
            </trkpt>
            <trkpt lon="101.458600" lat="12.655679">
                <ele>9.750610</ele>
                <time>2008-11-30T04:25:50Z</time>
            </trkpt>
            <trkpt lon="101.458624" lat="12.655621">
                <ele>10.231201</ele>
                <time>2008-11-30T04:25:53Z</time>
            </trkpt>
            <trkpt lon="101.458635" lat="12.655565">
                <ele>9.269898</ele>
                <time>2008-11-30T04:25:58Z</time>
            </trkpt>
            <trkpt lon="101.458610" lat="12.655477">
                <ele>10.711792</ele>
                <time>2008-11-30T04:26:08Z</time>
            </trkpt>
            <trkpt lon="101.458659" lat="12.655292">
                <ele>9.750610</ele>
                <time>2008-11-30T04:26:15Z</time>
            </trkpt>
            <trkpt lon="101.458620" lat="12.655117">
                <ele>8.308594</ele>
                <time>2008-11-30T04:26:19Z</time>
            </trkpt>
            <trkpt lon="101.458311" lat="12.654146">
                <ele>8.789185</ele>
                <time>2008-11-30T04:26:36Z</time>
            </trkpt>
            <trkpt lon="101.457877" lat="12.652669">
                <ele>3.501953</ele>
                <time>2008-11-30T04:26:57Z</time>
            </trkpt>
            <trkpt lon="101.457541" lat="12.651766">
                <ele>2.540649</ele>
                <time>2008-11-30T04:27:10Z</time>
            </trkpt>
            <trkpt lon="101.457566" lat="12.651466">
                <ele>2.540649</ele>
                <time>2008-11-30T04:27:15Z</time>
            </trkpt>
            <trkpt lon="101.457684" lat="12.651232">
                <ele>2.540649</ele>
                <time>2008-11-30T04:27:19Z</time>
            </trkpt>
            <trkpt lon="101.457733" lat="12.650974">
                <ele>2.540649</ele>
                <time>2008-11-30T04:27:23Z</time>
            </trkpt>
            <trkpt lon="101.457705" lat="12.650143">
                <ele>1.579346</ele>
                <time>2008-11-30T04:27:35Z</time>
            </trkpt>
            <trkpt lon="101.457630" lat="12.649885">
                <ele>1.098633</ele>
                <time>2008-11-30T04:27:39Z</time>
            </trkpt>
            <trkpt lon="101.457507" lat="12.649628">
                <ele>0.618042</ele>
                <time>2008-11-30T04:27:48Z</time>
            </trkpt>
            <trkpt lon="101.457533" lat="12.649651">
                <ele>2.060059</ele>
                <time>2008-11-30T04:27:56Z</time>
            </trkpt>
            <trkpt lon="101.457599" lat="12.649670">
                <ele>2.060059</ele>
                <time>2008-11-30T04:28:00Z</time>
            </trkpt>
            <trkpt lon="101.457997" lat="12.649580">
                <ele>1.098633</ele>
                <time>2008-11-30T04:28:11Z</time>
            </trkpt>
            <trkpt lon="101.458574" lat="12.649278">
                <ele>0.618042</ele>
                <time>2008-11-30T04:28:23Z</time>
            </trkpt>
            <trkpt lon="101.458626" lat="12.649264">
                <ele>0.618042</ele>
                <time>2008-11-30T04:28:24Z</time>
            </trkpt>
            <trkpt lon="101.459470" lat="12.649133">
                <ele>1.098633</ele>
                <time>2008-11-30T04:28:41Z</time>
            </trkpt>
            <trkpt lon="101.459829" lat="12.649047">
                <ele>1.579346</ele>
                <time>2008-11-30T04:28:48Z</time>
            </trkpt>
            <trkpt lon="101.460290" lat="12.649009">
                <ele>0.137451</ele>
                <time>2008-11-30T04:28:57Z</time>
            </trkpt>
            <trkpt lon="101.460349" lat="12.648914">
                <ele>0.137451</ele>
                <time>2008-11-30T04:29:01Z</time>
            </trkpt>
            <trkpt lon="101.460089" lat="12.648074">
                <ele>0.137451</ele>
                <time>2008-11-30T04:29:18Z</time>
            </trkpt>
            <trkpt lon="101.459941" lat="12.647202">
                <ele>-0.824097</ele>
                <time>2008-11-30T04:29:31Z</time>
            </trkpt>
            <trkpt lon="101.460130" lat="12.647000">
                <ele>-0.824097</ele>
                <time>2008-11-30T04:29:38Z</time>
            </trkpt>
            <trkpt lon="101.460183" lat="12.647003">
                <ele>-0.824097</ele>
                <time>2008-11-30T04:29:39Z</time>
            </trkpt>
            <trkpt lon="101.460393" lat="12.646773">
                <ele>-1.785278</ele>
                <time>2008-11-30T04:29:47Z</time>
            </trkpt>
            <trkpt lon="101.460219" lat="12.645771">
                <ele>-3.227295</ele>
                <time>2008-11-30T04:30:04Z</time>
            </trkpt>
            <trkpt lon="101.460385" lat="12.645562">
                <ele>-2.265991</ele>
                <time>2008-11-30T04:30:10Z</time>
            </trkpt>
            <trkpt lon="101.461075" lat="12.645395">
                <ele>-1.785278</ele>
                <time>2008-11-30T04:30:22Z</time>
            </trkpt>
            <trkpt lon="101.461152" lat="12.645172">
                <ele>-1.785278</ele>
                <time>2008-11-30T04:30:28Z</time>
            </trkpt>
            <trkpt lon="101.461157" lat="12.644791">
                <ele>-2.265991</ele>
                <time>2008-11-30T04:30:35Z</time>
            </trkpt>
            <trkpt lon="101.461221" lat="12.644620">
                <ele>-1.304688</ele>
                <time>2008-11-30T04:30:38Z</time>
            </trkpt>
            <trkpt lon="101.461881" lat="12.643899">
                <ele>-1.785278</ele>
                <time>2008-11-30T04:30:52Z</time>
            </trkpt>
            <trkpt lon="101.462042" lat="12.643741">
                <ele>-2.265991</ele>
                <time>2008-11-30T04:30:55Z</time>
            </trkpt>
            <trkpt lon="101.462238" lat="12.643679">
                <ele>-2.265991</ele>
                <time>2008-11-30T04:30:58Z</time>
            </trkpt>
            <trkpt lon="101.462500" lat="12.643475">
                <ele>-2.746704</ele>
                <time>2008-11-30T04:31:04Z</time>
            </trkpt>
            <trkpt lon="101.462922" lat="12.642240">
                <ele>-4.669312</ele>
                <time>2008-11-30T04:31:24Z</time>
            </trkpt>
            <trkpt lon="101.463054" lat="12.641856">
                <ele>-5.149902</ele>
                <time>2008-11-30T04:31:30Z</time>
            </trkpt>
            <trkpt lon="101.462876" lat="12.641582">
                <ele>-5.630493</ele>
                <time>2008-11-30T04:31:37Z</time>
            </trkpt>
            <trkpt lon="101.462606" lat="12.641441">
                <ele>-5.149902</ele>
                <time>2008-11-30T04:31:42Z</time>
            </trkpt>
            <trkpt lon="101.462246" lat="12.641270">
                <ele>-5.149902</ele>
                <time>2008-11-30T04:31:48Z</time>
            </trkpt>
            <trkpt lon="101.461432" lat="12.640943">
                <ele>-5.630493</ele>
                <time>2008-11-30T04:32:01Z</time>
            </trkpt>
            <trkpt lon="101.459921" lat="12.640588">
                <ele>-5.630493</ele>
                <time>2008-11-30T04:32:23Z</time>
            </trkpt>
            <trkpt lon="101.458782" lat="12.640321">
                <ele>-4.669312</ele>
                <time>2008-11-30T04:32:40Z</time>
            </trkpt>
            <trkpt lon="101.457587" lat="12.640057">
                <ele>-5.630493</ele>
                <time>2008-11-30T04:32:58Z</time>
            </trkpt>
            <trkpt lon="101.456515" lat="12.639833">
                <ele>-4.669312</ele>
                <time>2008-11-30T04:33:15Z</time>
            </trkpt>
            <trkpt lon="101.455532" lat="12.639575">
                <ele>-4.669312</ele>
                <time>2008-11-30T04:33:30Z</time>
            </trkpt>
            <trkpt lon="101.455241" lat="12.639479">
                <ele>-4.669312</ele>
                <time>2008-11-30T04:33:35Z</time>
            </trkpt>
            <trkpt lon="101.455012" lat="12.639268">
                <ele>-4.669312</ele>
                <time>2008-11-30T04:33:40Z</time>
            </trkpt>
            <trkpt lon="101.454678" lat="12.639053">
                <ele>-4.188599</ele>
                <time>2008-11-30T04:33:47Z</time>
            </trkpt>
            <trkpt lon="101.454296" lat="12.639189">
                <ele>-3.707886</ele>
                <time>2008-11-30T04:33:54Z</time>
            </trkpt>
            <trkpt lon="101.454082" lat="12.639231">
                <ele>-3.707886</ele>
                <time>2008-11-30T04:33:58Z</time>
            </trkpt>
            <trkpt lon="101.453023" lat="12.639459">
                <ele>-4.188599</ele>
                <time>2008-11-30T04:34:17Z</time>
            </trkpt>
            <trkpt lon="101.452623" lat="12.639548">
                <ele>-4.188599</ele>
                <time>2008-11-30T04:34:24Z</time>
            </trkpt>
            <trkpt lon="101.452110" lat="12.639637">
                <ele>-4.188599</ele>
                <time>2008-11-30T04:34:33Z</time>
            </trkpt>
            <trkpt lon="101.452007" lat="12.639656">
                <ele>-4.188599</ele>
                <time>2008-11-30T04:34:35Z</time>
            </trkpt>
            <trkpt lon="101.451748" lat="12.640156">
                <ele>-3.227295</ele>
                <time>2008-11-30T04:34:41Z</time>
            </trkpt>
            <trkpt lon="101.450710" lat="12.639462">
                <ele>-2.265991</ele>
                <time>2008-11-30T04:34:59Z</time>
            </trkpt>
            <trkpt lon="101.450516" lat="12.639432">
                <ele>-2.265991</ele>
                <time>2008-11-30T04:35:02Z</time>
            </trkpt>
            <trkpt lon="101.450267" lat="12.639559">
                <ele>-3.227295</ele>
                <time>2008-11-30T04:35:09Z</time>
            </trkpt>
            <trkpt lon="101.450244" lat="12.639424">
                <ele>-3.227295</ele>
                <time>2008-11-30T04:35:13Z</time>
            </trkpt>
            <trkpt lon="101.450341" lat="12.638494">
                <ele>-5.630493</ele>
                <time>2008-11-30T04:35:28Z</time>
            </trkpt>
            <trkpt lon="101.450515" lat="12.636914">
                <ele>-8.033936</ele>
                <time>2008-11-30T04:35:49Z</time>
            </trkpt>
            <trkpt lon="101.450807" lat="12.634971">
                <ele>-10.437256</ele>
                <time>2008-11-30T04:36:13Z</time>
            </trkpt>
            <trkpt lon="101.451069" lat="12.633710">
                <ele>-12.359863</ele>
                <time>2008-11-30T04:36:29Z</time>
            </trkpt>
            <trkpt lon="101.451401" lat="12.632442">
                <ele>-12.840454</ele>
                <time>2008-11-30T04:36:45Z</time>
            </trkpt>
            <trkpt lon="101.451550" lat="12.631777">
                <ele>-14.282471</ele>
                <time>2008-11-30T04:36:54Z</time>
            </trkpt>
            <trkpt lon="101.451428" lat="12.631572">
                <ele>-14.282471</ele>
                <time>2008-11-30T04:36:58Z</time>
            </trkpt>
            <trkpt lon="101.450323" lat="12.631352">
                <ele>-11.879150</ele>
                <time>2008-11-30T04:37:13Z</time>
            </trkpt>
            <trkpt lon="101.448929" lat="12.630957">
                <ele>-9.956543</ele>
                <time>2008-11-30T04:37:31Z</time>
            </trkpt>
            <trkpt lon="101.447907" lat="12.630566">
                <ele>-9.475830</ele>
                <time>2008-11-30T04:37:46Z</time>
            </trkpt>
            <trkpt lon="101.447790" lat="12.630648">
                <ele>-10.917847</ele>
                <time>2008-11-30T04:37:52Z</time>
            </trkpt>
            <trkpt lon="101.447748" lat="12.630749">
                <ele>-11.398438</ele>
                <time>2008-11-30T04:37:56Z</time>
            </trkpt>
            <trkpt lon="101.447704" lat="12.630811">
                <ele>-11.398438</ele>
                <time>2008-11-30T04:37:59Z</time>
            </trkpt>
            <trkpt lon="101.447648" lat="12.630810">
                <ele>-11.398438</ele>
                <time>2008-11-30T04:38:07Z</time>
            </trkpt>
            <trkpt lon="101.447660" lat="12.630841">
                <ele>-8.514648</ele>
                <time>2008-11-30T04:39:45Z</time>
            </trkpt>
            <trkpt lon="101.447655" lat="12.630845">
                <ele>-8.033936</ele>
                <time>2008-11-30T04:39:53Z</time>
            </trkpt>
        </trkseg>
    </trk>
</gpx>